createdAt,value
2023-02-24T00:00:31.210Z,101250.88
2023-02-24T00:03:06.111Z,101242.53
2023-02-24T00:05:44.638Z,101248.22
2023-02-24T00:08:14.808Z,101244.22
2023-02-24T00:10:45.285Z,101231.81
2023-02-24T00:13:21.706Z,101227.44
2023-02-24T00:16:02.746Z,101223.91
2023-02-24T00:18:32.914Z,101220.59
2023-02-24T00:21:11.792Z,101218.97
2023-02-24T00:23:42.324Z,101226.00
2023-02-24T00:26:14.330Z,101212.19
2023-02-24T00:28:45.003Z,101211.41
2023-02-24T00:31:17.307Z,101202.78
2023-02-24T00:33:48.733Z,101205.47
2023-02-24T00:36:25.493Z,101197.13
2023-02-24T00:38:58.122Z,101200.09
2023-02-24T00:41:30.845Z,101198.28
2023-02-24T00:44:06.324Z,101202.34
2023-02-24T00:46:38.736Z,101200.00
2023-02-24T00:49:11.325Z,101195.44
2023-02-24T00:51:45.772Z,101184.16
2023-02-24T00:54:17.379Z,101184.47
2023-02-24T00:56:50.608Z,101188.00
2023-02-24T00:59:22.536Z,101182.13
2023-02-24T01:01:55.037Z,101183.22
2023-02-24T01:04:25.282Z,101184.88
2023-02-24T01:07:00.516Z,101179.81
2023-02-24T01:09:32.581Z,101188.78
2023-02-24T01:12:17.692Z,101182.88
2023-02-24T01:14:50.026Z,101189.38
2023-02-24T01:17:21.706Z,101181.31
2023-02-24T01:19:52.218Z,101177.28
2023-02-24T01:22:25.504Z,101173.78
2023-02-24T01:24:55.777Z,101171.91
2023-02-24T01:27:25.781Z,101168.63
2023-02-24T01:29:55.822Z,101173.22
2023-02-24T01:32:29.110Z,101178.63
2023-02-24T01:34:59.787Z,101170.00
2023-02-24T01:37:32.491Z,101166.25
2023-02-24T01:40:07.828Z,101160.84
2023-02-24T01:42:38.978Z,101153.84
2023-02-24T01:45:22.014Z,101153.91
2023-02-24T01:47:52.642Z,101147.94
2023-02-24T01:50:26.315Z,101157.13
2023-02-24T01:53:04.421Z,101159.31
2023-02-24T01:55:37.489Z,101156.09
2023-02-24T01:58:12.352Z,101143.72
2023-02-24T02:00:45.749Z,101149.69
2023-02-24T02:03:24.420Z,101136.78
2023-02-24T02:05:56.289Z,101133.00
2023-02-24T02:08:29.424Z,101130.28
2023-02-24T02:11:06.366Z,101114.09
2023-02-24T02:13:38.807Z,101108.69
2023-02-24T02:16:28.173Z,101099.59
2023-02-24T02:19:19.476Z,101082.38
2023-02-24T02:22:17.331Z,101089.41
2023-02-24T02:24:59.055Z,101089.66
2023-02-24T02:27:46.792Z,101072.69
2023-02-24T02:31:02.230Z,101067.88
2023-02-24T02:34:05.625Z,101065.41
2023-02-24T02:36:47.196Z,101061.34
2023-02-24T02:39:25.116Z,101058.59
2023-02-24T02:42:01.813Z,101057.22
2023-02-24T02:44:40.185Z,101053.41
2023-02-24T02:47:20.202Z,101054.19
2023-02-24T02:49:55.307Z,101042.06
2023-02-24T02:52:33.140Z,101039.66
2023-02-24T02:55:10.297Z,101034.81
2023-02-24T02:57:47.390Z,101038.03
2023-02-24T03:00:23.133Z,101042.63
2023-02-24T03:02:56.811Z,101038.88
2023-02-24T03:05:33.143Z,101030.00
2023-02-24T03:08:11.699Z,101029.72
2023-02-24T03:10:44.997Z,101024.34
2023-02-24T03:13:16.711Z,101022.50
2023-02-24T03:15:48.316Z,101028.13
2023-02-24T03:18:29.221Z,101025.72
2023-02-24T03:21:08.812Z,101022.44
2023-02-24T03:23:47.121Z,101025.69
2023-02-24T03:26:24.000Z,101019.22
2023-02-24T03:29:01.670Z,101017.03
2023-02-24T03:31:38.070Z,101007.63
2023-02-24T03:34:12.782Z,101008.97
2023-02-24T03:36:43.322Z,101011.16
2023-02-24T03:39:16.168Z,101007.13
2023-02-24T03:41:54.387Z,101000.94
2023-02-24T03:44:24.978Z,101002.53
2023-02-24T03:46:56.571Z,100993.09
2023-02-24T03:49:27.311Z,100990.16
2023-02-24T03:52:10.529Z,100993.91
2023-02-24T03:54:59.526Z,100995.56
2023-02-24T03:57:37.775Z,100992.81
2023-02-24T04:00:26.547Z,100990.69
2023-02-24T04:03:04.882Z,100990.09
2023-02-24T04:05:47.583Z,100983.63
2023-02-24T04:08:20.470Z,100982.03
2023-02-24T04:11:05.512Z,100991.19
2023-02-24T04:13:40.631Z,100988.22
2023-02-24T04:16:17.284Z,100987.41
2023-02-24T04:18:51.520Z,100983.91
2023-02-24T04:21:23.923Z,100980.41
2023-02-24T04:23:54.413Z,100979.31
2023-02-24T04:26:29.848Z,100969.41
2023-02-24T04:29:00.495Z,100971.81
2023-02-24T04:31:31.833Z,100964.81
2023-02-24T04:34:02.146Z,100964.00
2023-02-24T04:36:34.347Z,100962.66
2023-02-24T04:39:05.256Z,100958.38
2023-02-24T04:41:37.801Z,100960.53
2023-02-24T04:44:07.888Z,100956.75
2023-02-24T04:46:37.851Z,100948.16
2023-02-24T04:49:07.916Z,100951.38
2023-02-24T04:51:42.528Z,100953.06
2023-02-24T04:54:15.899Z,100952.25
2023-02-24T04:56:51.034Z,100951.44
2023-02-24T04:59:21.887Z,100943.88
2023-02-24T05:02:00.623Z,100943.31
2023-02-24T05:04:33.740Z,100936.31
2023-02-24T05:07:03.937Z,100938.19
2023-02-24T05:09:33.860Z,100936.00
2023-02-24T05:12:06.969Z,100930.88
2023-02-24T05:14:37.083Z,100936.81
2023-02-24T05:17:07.154Z,100926.03
2023-02-24T05:19:49.682Z,100927.91
2023-02-24T05:22:19.723Z,100928.19
2023-02-24T05:24:50.362Z,100922.81
2023-02-24T05:27:24.284Z,100920.13
2023-02-24T05:29:55.974Z,100914.72
2023-02-24T05:32:28.931Z,100908.25
2023-02-24T05:34:59.749Z,100906.38
2023-02-24T05:37:29.738Z,100905.88
2023-02-24T05:40:01.403Z,100901.06
2023-02-24T05:42:35.376Z,100901.56
2023-02-24T05:45:05.811Z,100894.06
2023-02-24T05:47:36.896Z,100886.78
2023-02-24T05:50:09.351Z,100886.50
2023-02-24T05:52:39.843Z,100886.22
2023-02-24T05:55:14.217Z,100874.34
2023-02-24T05:57:46.807Z,100878.41
2023-02-24T06:00:17.939Z,100876.00
2023-02-24T06:02:50.941Z,100877.13
2023-02-24T06:05:37.237Z,100865.28
2023-02-24T06:08:11.882Z,100870.69
2023-02-24T06:10:43.558Z,100860.47
2023-02-24T06:13:16.152Z,100862.09
2023-02-24T06:15:50.723Z,100862.63
2023-02-24T06:18:21.676Z,100859.41
2023-02-24T06:20:51.591Z,100845.66
2023-02-24T06:23:21.513Z,100846.47
2023-02-24T06:25:51.377Z,100845.66
2023-02-24T06:28:23.948Z,100848.34
2023-02-24T06:30:53.864Z,100848.91
2023-02-24T06:33:26.537Z,100839.44
2023-02-24T06:35:56.444Z,100829.47
2023-02-24T06:38:26.366Z,100830.28
2023-02-24T06:41:00.436Z,100825.97
2023-02-24T06:43:33.039Z,100829.50
2023-02-24T06:46:06.226Z,100828.44
2023-02-24T06:48:36.804Z,100823.31
2023-02-24T06:51:08.393Z,100824.91
2023-02-24T06:53:43.356Z,100827.94
2023-02-24T06:56:19.982Z,100828.75
2023-02-24T06:58:55.529Z,100830.13
2023-02-24T07:01:28.941Z,100829.28
2023-02-24T07:04:18.046Z,100834.13
2023-02-24T07:06:52.482Z,100827.69
2023-02-24T07:09:25.034Z,100825.28
2023-02-24T07:11:56.962Z,100820.69
2023-02-24T07:14:31.905Z,100818.53
2023-02-24T07:17:03.958Z,100818.53
2023-02-24T07:19:35.006Z,100816.91
2023-02-24T07:22:06.143Z,100808.31
2023-02-24T07:24:46.509Z,100809.94
2023-02-24T07:27:22.764Z,100805.34
2023-02-24T07:29:55.561Z,100799.72
2023-02-24T07:32:25.938Z,100792.47
2023-02-24T07:34:56.002Z,100787.38
2023-02-24T07:37:25.924Z,100786.88
2023-02-24T07:39:55.899Z,100783.31
2023-02-24T07:42:25.842Z,100779.03
2023-02-24T07:44:58.498Z,100768.22
2023-02-24T07:47:28.673Z,100772.53
2023-02-24T07:50:00.516Z,100772.75
2023-02-24T07:52:32.702Z,100766.53
2023-02-24T07:55:03.111Z,100772.19
2023-02-24T07:57:33.481Z,100771.03
2023-02-24T08:00:18.052Z,100760.22
2023-02-24T08:02:49.095Z,100758.13
2023-02-24T08:05:19.389Z,100751.13
2023-02-24T08:07:50.375Z,100751.94
2023-02-24T08:10:37.019Z,100743.78
2023-02-24T08:13:07.274Z,100738.41
2023-02-24T08:15:39.841Z,100738.19
2023-02-24T08:18:09.766Z,100727.69
2023-02-24T08:20:52.422Z,100728.78
2023-02-24T08:23:23.714Z,100720.97
2023-02-24T08:25:53.924Z,100723.94
2023-02-24T08:28:27.058Z,100726.63
2023-02-24T08:30:59.637Z,100727.44
2023-02-24T08:33:30.658Z,100717.47
2023-02-24T08:36:02.404Z,100720.97
2023-02-24T08:38:44.846Z,100716.38
2023-02-24T08:41:18.436Z,100715.34
2023-02-24T08:43:49.403Z,100706.97
2023-02-24T08:46:26.941Z,100693.81
2023-02-24T08:49:01.286Z,100692.44
2023-02-24T08:51:35.272Z,100684.84
2023-02-24T08:54:11.514Z,100688.59
2023-02-24T08:56:44.453Z,100685.63
2023-02-24T08:59:29.496Z,100689.09
2023-02-24T09:02:17.626Z,100685.91
2023-02-24T09:04:48.214Z,100675.59
2023-02-24T09:07:19.568Z,100682.84
2023-02-24T09:09:50.219Z,100676.84
2023-02-24T09:12:25.164Z,100674.91
2023-02-24T09:14:58.470Z,100672.97
2023-02-24T09:17:50.360Z,100670.00
2023-02-24T09:20:35.023Z,100668.91
2023-02-24T09:23:07.390Z,100659.22
2023-02-24T09:25:45.434Z,100657.06
2023-02-24T09:28:18.201Z,100653.31
2023-02-24T09:30:54.076Z,100645.75
2023-02-24T09:33:29.303Z,100639.25
2023-02-24T09:36:10.089Z,100642.44
2023-02-24T09:39:02.524Z,100645.41
2023-02-24T09:41:54.076Z,100632.72
2023-02-24T09:44:30.014Z,100629.50
2023-02-24T09:47:09.396Z,100622.56
2023-02-24T09:49:50.643Z,100617.63
2023-02-24T09:52:37.999Z,100617.84
2023-02-24T09:55:25.425Z,100617.00
2023-02-24T09:58:20.418Z,100608.16
2023-02-24T10:00:57.931Z,100608.09
2023-02-24T10:03:48.391Z,100603.00
2023-02-24T10:06:23.853Z,100590.59
2023-02-24T10:09:00.050Z,100586.84
2023-02-24T10:11:36.179Z,100577.38
2023-02-24T10:14:09.500Z,100576.06
2023-02-24T10:16:46.513Z,100572.31
2023-02-24T10:19:27.351Z,100578.53
2023-02-24T10:22:06.171Z,100567.53
2023-02-24T10:24:47.607Z,100568.47
2023-02-24T10:27:25.250Z,100564.09
2023-02-24T10:30:11.136Z,100560.34
2023-02-24T10:32:50.948Z,100552.25
2023-02-24T10:35:26.246Z,100554.94
2023-02-24T10:38:05.597Z,100547.13
2023-02-24T10:40:45.176Z,100537.97
2023-02-24T10:43:30.335Z,100543.72
2023-02-24T10:46:17.512Z,100537.44
2023-02-24T10:49:00.738Z,100539.56
2023-02-24T10:51:37.385Z,100542.53
2023-02-24T10:54:34.481Z,100535.53
2023-02-24T10:57:18.969Z,100524.06
2023-02-24T11:00:21.092Z,100530.31
2023-02-24T11:03:07.396Z,100527.09
2023-02-24T11:05:44.538Z,100518.50
2023-02-24T11:08:36.956Z,100522.88
2023-02-24T11:11:25.676Z,100520.53
2023-02-24T11:14:10.600Z,100506.91
2023-02-24T11:17:01.185Z,100498.44
2023-02-24T11:19:32.647Z,100501.81
2023-02-24T11:22:05.362Z,100497.59
2023-02-24T11:24:35.356Z,100493.44
2023-02-24T11:27:11.334Z,100479.97
2023-02-24T11:29:58.756Z,100472.97
2023-02-24T11:32:41.619Z,100474.50
2023-02-24T11:35:20.793Z,100469.56
2023-02-24T11:38:02.051Z,100462.19
2023-02-24T11:40:36.779Z,100449.47
2023-02-24T11:43:18.552Z,100447.88
2023-02-24T11:45:51.985Z,100436.47
2023-02-24T11:48:27.760Z,100446.16
2023-02-24T11:51:02.782Z,100436.47
2023-02-24T11:53:38.336Z,100424.72
2023-02-24T11:56:14.104Z,100421.41
2023-02-24T11:58:52.290Z,100429.56
2023-02-24T12:01:30.133Z,100416.69
2023-02-24T12:04:14.375Z,100422.09
2023-02-24T12:06:55.679Z,100435.84
2023-02-24T12:09:30.193Z,100416.09
2023-02-24T12:12:05.066Z,100410.13
2023-02-24T12:14:42.788Z,100393.38
2023-02-24T12:17:21.279Z,100397.66
2023-02-24T12:20:02.322Z,100389.16
2023-02-24T12:22:46.226Z,100384.78
2023-02-24T12:25:20.268Z,100382.84
2023-02-24T12:28:04.907Z,100373.28
2023-02-24T12:31:00.234Z,100367.91
2023-02-24T12:33:45.920Z,100358.16
2023-02-24T12:36:29.285Z,100352.28
2023-02-24T12:39:12.458Z,100354.38
2023-02-24T12:41:58.414Z,100344.50
2023-02-24T12:44:37.646Z,100348.97
2023-02-24T12:47:16.177Z,100343.59
2023-02-24T12:50:27.278Z,100342.59
2023-02-24T12:53:03.555Z,100345.19
2023-02-24T12:55:40.835Z,100331.66
2023-02-24T12:58:16.685Z,100318.81
2023-02-24T13:00:58.307Z,100324.47
2023-02-24T13:03:47.649Z,100315.09
2023-02-24T13:06:24.945Z,100310.13
2023-02-24T13:09:03.744Z,100314.31
2023-02-24T13:11:43.207Z,100315.09
2023-02-24T13:14:22.700Z,100300.53
2023-02-24T13:16:52.940Z,100302.50
2023-02-24T13:19:32.886Z,100298.69
2023-02-24T13:22:09.292Z,100286.06
2023-02-24T13:24:40.244Z,100306.22
2023-02-24T13:27:23.823Z,100292.81
2023-02-24T13:29:57.610Z,100282.53
2023-02-24T13:32:31.952Z,100266.97
2023-02-24T13:35:07.229Z,100259.38
2023-02-24T13:37:39.599Z,100253.44
2023-02-24T13:40:28.496Z,100241.63
2023-02-24T13:43:04.983Z,100246.13
2023-02-24T13:45:37.321Z,100238.44
2023-02-24T13:48:25.307Z,100238.63
2023-02-24T13:51:13.998Z,100237.84
2023-02-24T13:54:02.044Z,100239.16
2023-02-24T13:56:43.415Z,100224.88
2023-02-24T13:59:44.116Z,100230.28
2023-02-24T14:02:19.922Z,100226.47
2023-02-24T14:04:52.343Z,100227.28
2023-02-24T14:07:27.198Z,100219.91
2023-02-24T14:10:00.905Z,100215.50
2023-02-24T14:12:32.767Z,100217.63
2023-02-24T14:15:04.516Z,100214.53
2023-02-24T14:17:36.555Z,100212.09
2023-02-24T14:20:21.003Z,100210.50
2023-02-24T14:22:56.076Z,100206.72
2023-02-24T14:25:27.188Z,100201.53
2023-02-24T14:27:58.761Z,100195.34
2023-02-24T14:30:34.535Z,100184.56
2023-02-24T14:33:06.058Z,100184.56
2023-02-24T14:35:39.879Z,100190.94
2023-02-24T14:38:31.570Z,100173.78
2023-02-24T14:41:01.571Z,100177.38
2023-02-24T14:43:31.711Z,100177.59
2023-02-24T14:46:09.383Z,100177.97
2023-02-24T14:48:39.531Z,100175.78
2023-02-24T14:51:13.189Z,100170.38
2023-02-24T14:53:52.814Z,100177.97
2023-02-24T14:56:26.137Z,100178.25
2023-02-24T14:59:00.349Z,100171.75
2023-02-24T15:01:35.384Z,100161.97
2023-02-24T15:04:15.662Z,100162.59
2023-02-24T15:06:46.843Z,100162.97
2023-02-24T15:09:23.961Z,100161.19
2023-02-24T15:11:56.264Z,100146.00
2023-02-24T15:14:29.743Z,100144.59
2023-02-24T15:17:03.693Z,100157.59
2023-02-24T15:19:37.524Z,100137.59
2023-02-24T15:22:20.037Z,100143.38
2023-02-24T15:24:53.828Z,100125.91
2023-02-24T15:27:27.358Z,100135.97
2023-02-24T15:30:03.030Z,100128.38
2023-02-24T15:32:35.820Z,100126.97
2023-02-24T15:35:06.390Z,100110.97
2023-02-24T15:37:44.969Z,100105.75
2023-02-24T15:40:24.477Z,100102.56
2023-02-24T15:42:55.895Z,100107.34
2023-02-24T15:45:31.206Z,100106.75
2023-02-24T15:48:02.757Z,100112.16
2023-02-24T15:50:34.965Z,100104.38
2023-02-24T15:53:09.280Z,100109.94
2023-02-24T15:55:44.504Z,100102.16
2023-02-24T15:58:18.460Z,100097.25
2023-02-24T16:00:53.416Z,100100.34
2023-02-24T16:03:23.426Z,100113.06
2023-02-24T16:05:53.471Z,100109.75
2023-02-24T16:08:24.846Z,100117.13
2023-02-24T16:10:58.142Z,100106.59
2023-02-24T16:13:30.615Z,100091.53
2023-02-24T16:16:00.740Z,100099.16
2023-02-24T16:18:30.641Z,100095.16
2023-02-24T16:21:00.772Z,100095.97
2023-02-24T16:23:30.751Z,100085.16
2023-02-24T16:26:03.378Z,100093.75
2023-02-24T16:28:34.733Z,100099.16
2023-02-24T16:31:05.289Z,100104.75
2023-02-24T16:33:51.860Z,100104.75
2023-02-24T16:36:25.804Z,100108.72
2023-02-24T16:38:56.124Z,100105.69
2023-02-24T16:41:30.696Z,100103.81
2023-02-24T16:44:00.601Z,100101.00
2023-02-24T16:46:35.950Z,100101.91
2023-02-24T16:49:06.158Z,100095.13
2023-02-24T16:51:36.139Z,100099.72
2023-02-24T16:54:06.158Z,100105.09
2023-02-24T16:56:38.684Z,100108.22
2023-02-24T16:59:08.851Z,100108.72
2023-02-24T17:01:39.155Z,100110.94
2023-02-24T17:04:11.253Z,100115.81
2023-02-24T17:06:41.323Z,100112.53
2023-02-24T17:09:15.791Z,100122.53
2023-02-24T17:11:48.464Z,100121.41
2023-02-24T17:14:19.916Z,100110.94
2023-02-24T17:16:50.699Z,100112.16
2023-02-24T17:19:20.745Z,100115.16
2023-02-24T17:21:50.760Z,100106.56
2023-02-24T17:24:22.912Z,100105.75
2023-02-24T17:27:00.039Z,100111.78
2023-02-24T17:29:30.219Z,100125.75
2023-02-24T17:32:00.531Z,100125.56
2023-02-24T17:34:31.654Z,100122.34
2023-02-24T17:37:01.580Z,100130.59
2023-02-24T17:39:31.803Z,100128.38
2023-02-24T17:42:04.645Z,100130.97
2023-02-24T17:44:34.773Z,100124.94
2023-02-24T17:47:06.521Z,100130.53
2023-02-24T17:49:36.483Z,100141.19
2023-02-24T17:52:06.569Z,100131.50
2023-02-24T17:54:36.583Z,100140.09
2023-02-24T17:57:09.342Z,100145.50
2023-02-24T17:59:39.775Z,100156.28
2023-02-24T18:02:09.965Z,100147.22
2023-02-24T18:04:40.498Z,100148.00
2023-02-24T18:07:10.522Z,100150.41
2023-02-24T18:09:40.529Z,100157.69
2023-02-24T18:12:13.161Z,100165.00
2023-02-24T18:14:43.306Z,100166.69
2023-02-24T18:17:15.198Z,100175.34
2023-02-24T18:19:45.178Z,100175.03
2023-02-24T18:22:15.330Z,100188.22
2023-02-24T18:24:45.914Z,100189.72
2023-02-24T18:27:18.844Z,100164.66
2023-02-24T18:29:49.040Z,100186.72
2023-02-24T18:32:19.221Z,100185.75
2023-02-24T18:34:49.761Z,100190.34
2023-02-24T18:37:20.382Z,100184.16
2023-02-24T18:39:53.094Z,100191.63
2023-02-24T18:42:25.927Z,100195.44
2023-02-24T18:44:55.842Z,100191.16
2023-02-24T18:47:26.136Z,100193.84
2023-02-24T18:49:56.153Z,100189.56
2023-02-24T18:52:26.178Z,100192.13
2023-02-24T18:54:56.590Z,100196.94
2023-02-24T18:57:29.490Z,100196.31
2023-02-24T18:59:59.578Z,100188.53
2023-02-24T19:02:30.284Z,100195.34
2023-02-24T19:05:00.402Z,100196.94
2023-02-24T19:07:30.887Z,100196.13
2023-02-24T19:10:00.935Z,100200.72
2023-02-24T19:12:33.931Z,100190.53
2023-02-24T19:15:05.012Z,100200.44
2023-02-24T19:17:37.159Z,100202.50
2023-02-24T19:20:10.878Z,100205.22
2023-02-24T19:22:40.913Z,100201.72
2023-02-24T19:25:11.417Z,100194.72
2023-02-24T19:27:44.718Z,100202.50
2023-02-24T19:30:15.401Z,100198.22
2023-02-24T19:32:45.595Z,100203.63
2023-02-24T19:35:15.884Z,100204.09
2023-02-24T19:37:46.018Z,100216.69
2023-02-24T19:40:16.185Z,100222.09
2023-02-24T19:42:52.014Z,100234.69
2023-02-24T19:45:39.081Z,100247.25
2023-02-24T19:48:15.877Z,100245.47
2023-02-24T19:50:48.519Z,100244.75
2023-02-24T19:53:18.773Z,100241.06
2023-02-24T19:55:53.049Z,100239.78
2023-02-24T19:58:26.312Z,100235.66
2023-02-24T20:00:56.548Z,100232.16
2023-02-24T20:03:29.565Z,100237.28
2023-02-24T20:05:59.749Z,100243.88
2023-02-24T20:08:29.758Z,100241.19
2023-02-24T20:11:04.676Z,100246.03
2023-02-24T20:13:37.453Z,100235.25
2023-02-24T20:16:11.392Z,100239.06
2023-02-24T20:18:42.227Z,100235.88
2023-02-24T20:21:13.518Z,100241.47
2023-02-24T20:23:44.372Z,100246.34
2023-02-24T20:26:16.626Z,100253.06
2023-02-24T20:28:50.653Z,100257.44
2023-02-24T20:31:22.625Z,100261.72
2023-02-24T20:33:53.709Z,100259.44
2023-02-24T20:36:26.089Z,100262.63
2023-02-24T20:38:58.081Z,100264.25
2023-02-24T20:41:28.603Z,100260.44
2023-02-24T20:44:01.760Z,100263.63
2023-02-24T20:46:33.642Z,100261.72
2023-02-24T20:49:05.742Z,100258.25
2023-02-24T20:51:39.255Z,100271.53
2023-02-24T20:54:10.492Z,100272.41
2023-02-24T20:56:42.319Z,100274.00
2023-02-24T20:59:25.553Z,100263.31
2023-02-24T21:01:55.833Z,100271.41
2023-02-24T21:04:25.995Z,100275.19
2023-02-24T21:06:57.029Z,100267.19
2023-02-24T21:09:27.508Z,100269.47
2023-02-24T21:11:57.659Z,100265.31
2023-02-24T21:14:31.502Z,100264.19
2023-02-24T21:17:01.823Z,100258.81
2023-02-24T21:19:32.669Z,100265.56
2023-02-24T21:22:02.918Z,100266.97
2023-02-24T21:24:33.142Z,100279.97
2023-02-24T21:27:03.224Z,100281.31
2023-02-24T21:29:35.930Z,100284.31
2023-02-24T21:32:06.378Z,100290.81
2023-02-24T21:34:36.630Z,100292.09
2023-02-24T21:37:07.555Z,100292.31
2023-02-24T21:39:37.651Z,100288.53
2023-02-24T21:42:08.200Z,100292.81
2023-02-24T21:44:44.415Z,100291.53
2023-02-24T21:47:14.653Z,100278.38
2023-02-24T21:49:46.442Z,100289.94
2023-02-24T21:52:16.842Z,100289.13
2023-02-24T21:54:46.952Z,100294.59
2023-02-24T21:57:17.394Z,100298.16
2023-02-24T21:59:50.586Z,100291.25
2023-02-24T22:02:20.936Z,100292.06
2023-02-24T22:04:52.330Z,100303.13
2023-02-24T22:07:22.353Z,100298.66
2023-02-24T22:09:53.314Z,100304.03
2023-02-24T22:12:23.347Z,100295.22
2023-02-24T22:14:56.122Z,100299.81
2023-02-24T22:17:26.190Z,100299.03
2023-02-24T22:20:06.766Z,100300.38
2023-02-24T22:22:39.571Z,100298.78
2023-02-24T22:25:11.010Z,100299.06
2023-02-24T22:27:41.445Z,100311.16
2023-02-24T22:30:15.549Z,100304.44
2023-02-24T22:32:45.766Z,100305.78
2023-02-24T22:35:15.908Z,100294.44
2023-02-24T22:37:45.997Z,100295.44
2023-02-24T22:40:19.317Z,100302.94
2023-02-24T22:42:51.668Z,100311.00
2023-02-24T22:45:34.612Z,100314.59
2023-02-24T22:48:04.798Z,100318.56
2023-02-24T22:50:36.424Z,100313.28
2023-02-24T22:53:06.428Z,100312.75
2023-02-24T22:55:37.115Z,100319.78
2023-02-24T22:58:10.956Z,100314.66
2023-02-24T23:00:47.580Z,100318.50
2023-02-24T23:03:19.104Z,100320.91
2023-02-24T23:05:58.207Z,100322.56
2023-02-24T23:08:28.649Z,100330.06
2023-02-24T23:11:05.962Z,100335.47
2023-02-24T23:13:36.526Z,100322.50
2023-02-24T23:16:14.225Z,100330.06
2023-02-24T23:18:52.337Z,100333.84
2023-02-24T23:21:29.996Z,100328.84
2023-02-24T23:24:01.902Z,100335.81
2023-02-24T23:26:32.750Z,100339.63
2023-02-24T23:29:03.069Z,100340.97
2023-02-24T23:31:52.687Z,100349.13
2023-02-24T23:34:23.228Z,100357.13
2023-02-24T23:36:53.536Z,100362.50
2023-02-24T23:39:25.092Z,100368.94
2023-02-24T23:41:57.883Z,100363.53
2023-02-24T23:44:28.090Z,100363.19
2023-02-24T23:47:01.754Z,100355.84
2023-02-24T23:49:47.313Z,100362.84
2023-02-24T23:52:18.409Z,100376.81
2023-02-24T23:55:09.324Z,100367.84
2023-02-24T23:57:39.521Z,100370.41
